KTUSKSEZ

Guest
Details From KTUS - Tucson Intl
To KSEZ - Sedona
Flight Number -
Tags decoded
Created
Modified
Stats Distance 169 nm / 314 km
Max Altitude 0 ft / 0 m
Waypoints 2
Social Downloads 0
Likes 0
Share VATSIM

Download

Looking for another format? Having issues loading an existing format? Contact us
Advertisement - Login to hide

Notes

Requested: KTUS KSEZ

Route

KTUS KSEZ

ID Type Via Altitude Latitude Longitude Leg Dist Tot Dist Heading (true) Name
O KTUS APT - 0 ft / 0 m 32.11686˚ -110.94215˚ - 0 nm - Tucson Intl
O KSEZ APT - 0 ft / 0 m 34.84861˚ -111.78848˚ 169 nm 169 nm 346° / 345° Sedona

Altitude Profile

Advertisement - Login to hide

Weather


0- 5 10 15 20 25 30 35+ Temperature / ° C

Clouds and Precipitation
Forecast for 2017-12-16 06:00 UTC. Updated 11 minutes ago

Ground ~20,000 ft ~40,000 ft Winds

KTUS

Details ICAO KTUS (TUS)
Name Tucson Intl
Region United States
Timezone America/Phoenix (UTC-7.0)
Stats Elevation 2,643 ft / 806 m (AMSL)
Location 32.116858° -110.942155°
Runways 3
Magnetic Variation 9.788° E

METAR

KTUS 160453Z 12010KT 10SM CLR 13/M08 A3005 RMK AO2 SLP155 T01281083

Decode

TAF

KTUS 152336Z 1600/1624 06006KT P6SM SKC FM160400 13011KT P6SM SKC FM161700 19007KT P6SM SCT250 FM162000 21010KT P6SM FEW150 BKN250

Decode

Departure Runways

ID Width Length Bearing (true) Bearing (mag) Surface Threshold Offset Overrun Length
03 150 ft / 46 m 7,004 ft / 2,135 m 44.90° 35.11° Asphalt 841 ft / 256 m 0 ft / 0 m
11L 150 ft / 46 m 11,000 ft / 3,353 m 135.16° 125.37° Asphalt 0 ft / 0 m 3,257 ft / 993 m
11R 75 ft / 23 m 8,412 ft / 2,564 m 135.16° 125.37° Asphalt 1,410 ft / 430 m 0 ft / 0 m
21 150 ft / 46 m 7,004 ft / 2,135 m 224.91° 215.12° Asphalt 0 ft / 0 m 0 ft / 0 m
29L 75 ft / 23 m 8,412 ft / 2,564 m 315.17° 305.38° Asphalt 0 ft / 0 m 0 ft / 0 m
29R 150 ft / 46 m 11,000 ft / 3,353 m 315.17° 305.38° Asphalt 0 ft / 0 m 1,000 ft / 305 m

KSEZ

Details ICAO KSEZ (SDX)
Name Sedona
Region United States
Timezone America/Phoenix (UTC-7.0)
Stats Elevation 4,827 ft / 1,471 m (AMSL)
Location 34.848607° -111.788482°
Runways 1
Magnetic Variation 10.459° E

METAR

KSEZ 160515Z AUTO 01007KT 10SM CLR 07/M20 A3009 RMK AO2

Decode

TAF

TAF KSEZ 152334Z 1600/1624 VRB06KT P6SM FEW250 FM160300 04010KT P6SM SCT250 FM161800 15008KT P6SM SCT140 OVC250

Decode

Destination Runways

ID Width Length Bearing (true) Bearing (mag) Surface Threshold Offset Overrun Length
03 100 ft / 30 m 5,130 ft / 1,564 m 45.63° 35.17° Asphalt 0 ft / 0 m 0 ft / 0 m
21 100 ft / 30 m 5,130 ft / 1,564 m 225.64° 215.18° Asphalt 0 ft / 0 m 0 ft / 0 m

Popular Alternatives